createdAt,value
2018-12-18T00:00:31.596Z,87.58
2018-12-18T00:03:00.416Z,88.18
2018-12-18T00:05:35.192Z,87.92
2018-12-18T00:08:10.258Z,87.52
2018-12-18T00:10:44.295Z,86.96
2018-12-18T00:13:13.121Z,86.57
2018-12-18T00:15:41.927Z,87.53
2018-12-18T00:18:10.743Z,87.63
2018-12-18T00:20:39.592Z,87.45
2018-12-18T00:23:08.406Z,86.45
2018-12-18T00:25:37.197Z,86.52
2018-12-18T00:28:06.069Z,87.72
2018-12-18T00:30:34.894Z,86.73
2018-12-18T00:33:03.789Z,85.98
2018-12-18T00:35:32.773Z,87.19
2018-12-18T00:38:01.574Z,85.81
2018-12-18T00:40:30.789Z,86.41
2018-12-18T00:42:59.602Z,85.06
2018-12-18T00:45:28.400Z,85.35
2018-12-18T00:47:57.238Z,85.71
2018-12-18T00:50:26.132Z,86.04
2018-12-18T00:52:54.945Z,85.51
2018-12-18T00:55:23.752Z,86.54
2018-12-18T00:57:52.598Z,85.57
2018-12-18T01:00:21.469Z,85.62
2018-12-18T01:02:50.259Z,85.81
2018-12-18T01:05:19.261Z,85.82
2018-12-18T01:07:53.283Z,85.38
2018-12-18T01:10:18.897Z,84.41
2018-12-18T01:12:47.885Z,85.35
2018-12-18T01:15:16.690Z,86.19
2018-12-18T01:17:45.533Z,85.75
2018-12-18T01:20:14.422Z,88.30
2018-12-18T01:22:43.246Z,88.87
2018-12-18T01:25:12.048Z,87.17
2018-12-18T01:27:40.910Z,84.91
2018-12-18T01:30:09.754Z,85.76
2018-12-18T01:32:38.548Z,85.94
2018-12-18T01:35:07.468Z,84.69
2018-12-18T01:37:36.256Z,85.68
2018-12-18T01:40:05.868Z,85.31
2018-12-18T01:42:34.784Z,86.05
2018-12-18T01:45:03.617Z,86.07
2018-12-18T01:47:32.483Z,86.04
2018-12-18T01:50:01.303Z,86.13
2018-12-18T01:52:30.118Z,85.49
2018-12-18T01:54:58.973Z,85.98
2018-12-18T01:57:27.782Z,86.82
2018-12-18T01:59:56.621Z,86.60
2018-12-18T02:02:25.468Z,89.61
2018-12-18T02:04:54.274Z,86.96
2018-12-18T02:07:23.084Z,87.96
2018-12-18T02:09:52.036Z,88.04
2018-12-18T02:12:20.897Z,87.65
2018-12-18T02:14:49.724Z,87.56
2018-12-18T02:17:18.612Z,89.70
2018-12-18T02:19:47.488Z,88.64
2018-12-18T02:22:16.290Z,88.26
2018-12-18T02:24:45.105Z,87.39
2018-12-18T02:27:13.970Z,87.08
2018-12-18T02:29:42.806Z,86.71
2018-12-18T02:32:11.613Z,87.17
2018-12-18T02:34:41.718Z,87.48
2018-12-18T02:37:10.537Z,86.46
2018-12-18T02:39:39.362Z,87.18
2018-12-18T02:42:08.212Z,85.97
2018-12-18T02:44:37.042Z,86.05
2018-12-18T02:47:05.870Z,86.16
2018-12-18T02:49:34.726Z,87.63
2018-12-18T02:52:03.577Z,87.22
2018-12-18T02:54:32.402Z,87.04
2018-12-18T02:57:01.326Z,86.37
2018-12-18T02:59:30.245Z,87.93
2018-12-18T03:01:59.152Z,88.18
2018-12-18T03:04:28.013Z,87.15
2018-12-18T03:06:56.841Z,87.80
2018-12-18T03:09:25.864Z,87.26
2018-12-18T03:11:54.742Z,88.72
2018-12-18T03:14:23.579Z,86.96
2018-12-18T03:16:52.404Z,87.70
2018-12-18T03:19:22.025Z,87.04
2018-12-18T03:21:50.833Z,87.18
2018-12-18T03:24:19.669Z,87.82
2018-12-18T03:26:48.530Z,87.68
2018-12-18T03:29:17.476Z,87.79
2018-12-18T03:31:50.388Z,88.71
2018-12-18T03:34:19.326Z,88.62
2018-12-18T03:36:48.139Z,87.80
2018-12-18T03:39:17.058Z,88.68
2018-12-18T03:41:46.029Z,89.42
2018-12-18T03:44:14.873Z,89.60
2018-12-18T03:46:44.962Z,89.97
2018-12-18T03:49:13.788Z,89.54
2018-12-18T03:51:42.597Z,89.58
2018-12-18T03:54:11.466Z,89.04
2018-12-18T03:56:40.286Z,89.53
2018-12-18T03:59:09.196Z,88.00
2018-12-18T04:01:38.025Z,87.77
2018-12-18T04:04:06.998Z,88.50
2018-12-18T04:06:35.868Z,88.70
2018-12-18T04:09:07.057Z,87.99
2018-12-18T04:11:40.031Z,88.79
2018-12-18T04:14:08.871Z,90.07
2018-12-18T04:16:37.805Z,89.11
2018-12-18T04:19:06.953Z,90.35
2018-12-18T04:21:35.749Z,89.75
2018-12-18T04:24:04.590Z,89.04
2018-12-18T04:26:33.450Z,87.51
2018-12-18T04:29:02.467Z,88.80
2018-12-18T04:31:31.293Z,89.14
2018-12-18T04:34:00.122Z,90.03
2018-12-18T04:36:28.921Z,88.80
2018-12-18T04:38:57.937Z,87.30
2018-12-18T04:41:26.782Z,86.66
2018-12-18T04:43:55.580Z,88.33
2018-12-18T04:46:24.401Z,88.71
2018-12-18T04:48:58.695Z,89.33
2018-12-18T04:51:27.515Z,89.74
2018-12-18T04:53:56.432Z,89.26
2018-12-18T04:56:25.297Z,87.96
2018-12-18T04:58:54.093Z,88.69
2018-12-18T05:01:22.905Z,87.53
2018-12-18T05:03:51.773Z,89.13
2018-12-18T05:06:20.592Z,89.58
2018-12-18T05:08:49.444Z,89.45
2018-12-18T05:11:18.360Z,89.77
2018-12-18T05:13:47.254Z,88.78
2018-12-18T05:16:16.084Z,89.30
2018-12-18T05:18:44.909Z,90.13
2018-12-18T05:21:13.866Z,89.57
2018-12-18T05:23:42.665Z,89.63
2018-12-18T05:26:11.497Z,88.89
2018-12-18T05:28:41.967Z,89.78
2018-12-18T05:31:10.821Z,89.22
2018-12-18T05:33:39.655Z,89.38
2018-12-18T05:36:08.586Z,89.04
2018-12-18T05:38:37.443Z,89.97
2018-12-18T05:41:06.317Z,88.07
2018-12-18T05:43:35.135Z,88.81
2018-12-18T05:46:03.977Z,89.29
2018-12-18T05:48:32.842Z,89.50
2018-12-18T05:51:01.643Z,88.82
2018-12-18T05:53:30.477Z,88.83
2018-12-18T05:55:59.357Z,89.73
2018-12-18T05:58:28.207Z,89.71
2018-12-18T06:00:57.005Z,89.82
2018-12-18T06:03:25.984Z,88.80
2018-12-18T06:05:54.827Z,88.60
2018-12-18T06:08:23.666Z,88.18
2018-12-18T06:10:53.893Z,88.61
2018-12-18T06:13:22.697Z,89.20
2018-12-18T06:15:51.521Z,88.41
2018-12-18T06:18:20.407Z,88.69
2018-12-18T06:20:49.367Z,88.73
2018-12-18T06:23:18.169Z,88.07
2018-12-18T06:25:47.089Z,86.87
2018-12-18T06:28:15.939Z,87.23
2018-12-18T06:30:44.758Z,87.53
2018-12-18T06:33:13.619Z,87.72
2018-12-18T06:35:42.532Z,87.96
2018-12-18T06:38:11.362Z,88.14
2018-12-18T06:40:41.776Z,88.20
2018-12-18T06:43:10.611Z,87.46
2018-12-18T06:45:39.436Z,87.64
2018-12-18T06:48:08.305Z,87.71
2018-12-18T06:50:37.150Z,88.26
2018-12-18T06:53:06.008Z,89.07
2018-12-18T06:55:34.903Z,87.72
2018-12-18T06:58:03.773Z,87.97
2018-12-18T07:00:32.580Z,89.02
2018-12-18T07:03:01.561Z,87.64
2018-12-18T07:05:30.365Z,87.67
2018-12-18T07:07:59.182Z,87.65
2018-12-18T07:10:28.030Z,88.31
2018-12-18T07:12:56.862Z,87.75
2018-12-18T07:15:25.858Z,86.74
2018-12-18T07:17:54.713Z,86.77
2018-12-18T07:20:23.577Z,87.12
2018-12-18T07:22:52.517Z,87.07
2018-12-18T07:25:21.393Z,87.00
2018-12-18T07:27:50.207Z,87.54
2018-12-18T07:30:19.061Z,86.87
2018-12-18T07:32:47.910Z,86.89
2018-12-18T07:35:23.082Z,86.35
2018-12-18T07:37:47.563Z,85.65
2018-12-18T07:40:16.440Z,85.93
2018-12-18T07:42:45.257Z,85.88
2018-12-18T07:45:14.122Z,84.83
2018-12-18T07:47:42.991Z,86.13
2018-12-18T07:50:11.833Z,85.76
2018-12-18T07:52:40.701Z,85.93
2018-12-18T07:55:09.593Z,86.58
2018-12-18T07:57:38.394Z,86.31
2018-12-18T08:00:07.273Z,86.72
2018-12-18T08:02:36.143Z,87.37
2018-12-18T08:05:05.430Z,86.90
2018-12-18T08:07:34.249Z,87.87
2018-12-18T08:10:03.207Z,88.10
2018-12-18T08:12:32.133Z,87.79
2018-12-18T08:15:01.132Z,86.59
2018-12-18T08:17:30.054Z,86.80
2018-12-18T08:19:58.885Z,86.39
2018-12-18T08:22:28.976Z,86.92
2018-12-18T08:24:57.844Z,87.21
2018-12-18T08:27:26.876Z,87.47
2018-12-18T08:29:55.746Z,86.08
2018-12-18T08:32:24.643Z,86.45
2018-12-18T08:34:53.452Z,86.71
2018-12-18T08:37:22.263Z,87.04
2018-12-18T08:39:51.076Z,86.58
2018-12-18T08:42:20.009Z,86.93
2018-12-18T08:44:48.788Z,86.56
2018-12-18T08:47:17.608Z,87.46
2018-12-18T08:49:46.401Z,86.78
2018-12-18T08:52:15.198Z,86.35
2018-12-18T08:54:44.044Z,86.54
2018-12-18T08:57:12.848Z,86.85
2018-12-18T08:59:41.809Z,85.90
2018-12-18T09:02:10.633Z,86.82
2018-12-18T09:04:39.424Z,87.23
2018-12-18T09:07:08.233Z,87.08
2018-12-18T09:09:37.057Z,87.55
2018-12-18T09:12:07.997Z,87.64
2018-12-18T09:14:38.864Z,87.33
2018-12-18T09:17:08.458Z,88.01
2018-12-18T09:19:37.244Z,86.78
2018-12-18T09:22:06.101Z,86.71
2018-12-18T09:24:34.889Z,86.77
2018-12-18T09:27:03.713Z,87.55
2018-12-18T09:29:33.871Z,86.93
2018-12-18T09:32:02.670Z,86.83
2018-12-18T09:34:32.974Z,87.00
2018-12-18T09:37:01.807Z,87.38
2018-12-18T09:39:35.702Z,88.07
2018-12-18T09:42:09.590Z,87.82
2018-12-18T09:44:38.469Z,86.49
2018-12-18T09:47:07.309Z,86.80
2018-12-18T09:49:36.201Z,86.95
2018-12-18T09:52:05.238Z,86.95
2018-12-18T09:54:34.061Z,86.97
2018-12-18T09:57:02.911Z,86.36
2018-12-18T09:59:33.057Z,86.09
2018-12-18T10:02:03.259Z,85.65
2018-12-18T10:04:32.085Z,85.53
2018-12-18T10:07:00.970Z,84.36
2018-12-18T10:09:29.794Z,85.09
2018-12-18T10:11:58.616Z,84.97
2018-12-18T10:14:27.530Z,84.79
2018-12-18T10:16:56.416Z,85.61
2018-12-18T10:19:25.201Z,84.51
2018-12-18T10:21:54.065Z,84.88
2018-12-18T10:24:23.302Z,84.63
2018-12-18T10:26:52.089Z,85.67
2018-12-18T10:29:20.909Z,85.30
2018-12-18T10:31:49.730Z,85.23
2018-12-18T10:34:18.514Z,85.22
2018-12-18T10:36:47.474Z,84.73
2018-12-18T10:39:16.331Z,85.10
2018-12-18T10:41:45.177Z,85.44
2018-12-18T10:44:15.333Z,85.95
2018-12-18T10:46:44.156Z,85.67
2018-12-18T10:49:12.934Z,84.87
2018-12-18T10:51:41.756Z,85.04
2018-12-18T10:54:10.745Z,85.64
2018-12-18T10:56:39.632Z,85.71
2018-12-18T10:59:08.581Z,85.12
2018-12-18T11:01:42.545Z,85.16
2018-12-18T11:04:11.432Z,85.46
2018-12-18T11:06:40.269Z,84.42
2018-12-18T11:09:10.386Z,85.29
2018-12-18T11:11:39.344Z,85.16
2018-12-18T11:14:08.177Z,84.29
2018-12-18T11:16:37.573Z,84.29
2018-12-18T11:19:06.715Z,85.11
2018-12-18T11:21:35.537Z,85.05
2018-12-18T11:24:04.448Z,85.50
2018-12-18T11:26:33.297Z,84.07
2018-12-18T11:29:02.145Z,84.23
2018-12-18T11:31:32.343Z,84.36
2018-12-18T11:34:01.176Z,83.01
2018-12-18T11:36:30.032Z,84.32
2018-12-18T11:38:58.977Z,83.74
2018-12-18T11:41:27.891Z,83.67
2018-12-18T11:43:56.797Z,82.42
2018-12-18T11:46:25.678Z,83.34
2018-12-18T11:48:54.525Z,83.75
2018-12-18T11:51:23.432Z,82.70
2018-12-18T11:53:52.247Z,83.18
2018-12-18T11:56:21.210Z,82.92
2018-12-18T11:58:51.244Z,83.21
2018-12-18T12:01:20.229Z,82.82
2018-12-18T12:03:49.030Z,83.97
2018-12-18T12:06:22.997Z,82.78
2018-12-18T12:08:48.901Z,82.56
2018-12-18T12:11:17.699Z,82.78
2018-12-18T12:13:46.516Z,82.12
2018-12-18T12:16:16.700Z,81.97
2018-12-18T12:18:45.579Z,82.81
2018-12-18T12:21:14.474Z,82.53
2018-12-18T12:23:43.301Z,81.47
2018-12-18T12:26:17.076Z,81.05
2018-12-18T12:28:47.499Z,81.52
2018-12-18T12:31:16.297Z,82.92
2018-12-18T12:33:45.096Z,81.41
2018-12-18T12:36:15.136Z,81.26
2018-12-18T12:38:43.920Z,81.13
2018-12-18T12:41:12.712Z,81.86
2018-12-18T12:43:43.101Z,80.64
2018-12-18T12:46:12.312Z,80.71
2018-12-18T12:48:48.002Z,81.99
2018-12-18T12:51:16.788Z,81.68
2018-12-18T12:53:45.574Z,80.19
2018-12-18T12:56:14.497Z,80.13
2018-12-18T12:58:43.322Z,79.55
2018-12-18T13:01:12.120Z,79.87
2018-12-18T13:03:40.936Z,79.92
2018-12-18T13:06:09.761Z,80.92
2018-12-18T13:08:38.536Z,80.99
2018-12-18T13:11:07.385Z,81.27
2018-12-18T13:13:36.337Z,80.70
2018-12-18T13:16:05.169Z,81.32
2018-12-18T13:18:33.959Z,81.32
2018-12-18T13:21:02.805Z,79.47
2018-12-18T13:23:31.627Z,79.78
2018-12-18T13:26:00.421Z,80.91
2018-12-18T13:28:29.222Z,80.19
2018-12-18T13:30:58.042Z,81.16
2018-12-18T13:33:26.863Z,79.94
2018-12-18T13:35:55.752Z,81.04
2018-12-18T13:38:26.724Z,81.79
2018-12-18T13:40:55.518Z,81.97
2018-12-18T13:43:24.289Z,81.25
2018-12-18T13:45:55.678Z,81.17
2018-12-18T13:48:24.517Z,82.50
2018-12-18T13:50:53.365Z,82.63
2018-12-18T13:53:22.546Z,81.29
2018-12-18T13:55:51.357Z,81.31
2018-12-18T13:58:20.197Z,80.96
2018-12-18T14:00:49.938Z,81.85
2018-12-18T14:03:18.782Z,81.68
2018-12-18T14:05:47.945Z,81.85
2018-12-18T14:08:17.006Z,82.18
2018-12-18T14:10:45.861Z,81.81
2018-12-18T14:13:14.743Z,81.81
2018-12-18T14:15:43.686Z,83.15
2018-12-18T14:18:12.609Z,82.10
2018-12-18T14:20:41.408Z,82.59
2018-12-18T14:23:10.261Z,83.71
2018-12-18T14:25:39.091Z,81.85
2018-12-18T14:28:07.932Z,82.70
2018-12-18T14:30:36.955Z,81.83
2018-12-18T14:33:06.844Z,83.20
2018-12-18T14:35:35.830Z,83.21
2018-12-18T14:38:04.877Z,82.65
2018-12-18T14:40:33.836Z,82.68
2018-12-18T14:43:02.805Z,83.47
2018-12-18T14:45:31.810Z,83.80
2018-12-18T14:48:00.725Z,82.33
2018-12-18T14:50:29.844Z,82.57
2018-12-18T14:53:00.093Z,83.32
2018-12-18T14:55:29.013Z,82.96
2018-12-18T14:57:58.189Z,83.23
2018-12-18T15:00:27.167Z,82.87
2018-12-18T15:02:56.088Z,82.86
2018-12-18T15:05:25.009Z,82.73
2018-12-18T15:07:54.179Z,81.70
2018-12-18T15:10:23.110Z,82.13
2018-12-18T15:12:52.385Z,81.59
2018-12-18T15:15:21.325Z,81.76
2018-12-18T15:17:50.261Z,80.96
2018-12-18T15:20:19.201Z,80.61
2018-12-18T15:22:48.202Z,80.95
2018-12-18T15:25:17.115Z,81.35
2018-12-18T15:27:46.016Z,81.21
2018-12-18T15:30:14.938Z,80.35
2018-12-18T15:32:44.081Z,80.20
2018-12-18T15:35:13.177Z,81.13
2018-12-18T15:37:42.469Z,79.54
2018-12-18T15:40:11.429Z,80.67
2018-12-18T15:42:40.325Z,81.14
2018-12-18T15:45:09.366Z,79.88
2018-12-18T15:47:38.345Z,81.30
2018-12-18T15:50:08.857Z,80.03
2018-12-18T15:52:37.841Z,80.91
2018-12-18T15:55:08.467Z,81.17
2018-12-18T15:57:37.399Z,80.80
2018-12-18T16:00:07.241Z,81.06
2018-12-18T16:02:36.265Z,81.35
2018-12-18T16:05:05.400Z,81.19
2018-12-18T16:07:34.313Z,80.14
2018-12-18T16:10:03.437Z,80.66
2018-12-18T16:12:32.338Z,81.14
2018-12-18T16:15:01.259Z,81.60
2018-12-18T16:17:31.656Z,81.43
2018-12-18T16:20:00.573Z,81.00
2018-12-18T16:22:29.491Z,81.58
2018-12-18T16:24:58.856Z,81.49
2018-12-18T16:27:27.631Z,81.48
2018-12-18T16:29:56.424Z,80.68
2018-12-18T16:32:25.249Z,80.21
2018-12-18T16:34:54.028Z,80.48
2018-12-18T16:37:23.384Z,80.26
2018-12-18T16:39:52.478Z,80.39
2018-12-18T16:42:21.263Z,81.16
2018-12-18T16:44:50.037Z,80.72
2018-12-18T16:47:20.073Z,80.77
2018-12-18T16:49:49.040Z,79.99
2018-12-18T16:52:17.956Z,80.31
2018-12-18T16:54:46.776Z,80.84
2018-12-18T16:57:15.565Z,80.17
2018-12-18T16:59:44.340Z,79.12
2018-12-18T17:02:14.558Z,79.64
2018-12-18T17:04:44.776Z,79.61
2018-12-18T17:07:13.573Z,79.97
2018-12-18T17:09:42.404Z,78.86
2018-12-18T17:12:11.176Z,79.31
2018-12-18T17:14:39.964Z,78.94
2018-12-18T17:17:08.756Z,78.42
2018-12-18T17:19:37.554Z,79.45
2018-12-18T17:22:06.436Z,78.99
2018-12-18T17:24:35.268Z,79.90
2018-12-18T17:27:04.133Z,79.20
2018-12-18T17:29:33.009Z,80.07
2018-12-18T17:32:01.893Z,78.80
2018-12-18T17:34:30.720Z,79.51
2018-12-18T17:36:59.600Z,78.93
2018-12-18T17:39:29.180Z,79.01
2018-12-18T17:41:58.024Z,79.12
2018-12-18T17:44:26.864Z,79.39
2018-12-18T17:46:55.776Z,79.00
2018-12-18T17:49:24.741Z,79.08
2018-12-18T17:51:53.605Z,79.23
2018-12-18T17:54:23.284Z,79.29
2018-12-18T17:56:52.183Z,78.39
2018-12-18T17:59:21.100Z,78.85
2018-12-18T18:01:49.981Z,79.03
2018-12-18T18:04:18.850Z,79.07
2018-12-18T18:06:47.784Z,78.80
2018-12-18T18:09:16.634Z,78.18
2018-12-18T18:11:45.494Z,78.81
2018-12-18T18:14:14.550Z,79.04
2018-12-18T18:16:43.389Z,78.79
2018-12-18T18:19:12.243Z,79.28
2018-12-18T18:21:42.409Z,79.13
2018-12-18T18:24:11.246Z,79.24
2018-12-18T18:26:40.078Z,79.24
2018-12-18T18:29:10.322Z,79.27
2018-12-18T18:31:39.186Z,79.74
2018-12-18T18:34:08.139Z,79.45
2018-12-18T18:36:36.991Z,80.19
2018-12-18T18:39:08.173Z,80.85
2018-12-18T18:41:37.094Z,80.64
2018-12-18T18:44:06.125Z,80.54
2018-12-18T18:46:34.917Z,80.85
2018-12-18T18:49:03.970Z,81.18
2018-12-18T18:51:32.794Z,81.61
2018-12-18T18:54:01.588Z,81.88
2018-12-18T18:56:30.560Z,82.10
2018-12-18T18:58:59.370Z,81.93
2018-12-18T19:01:28.341Z,81.63
2018-12-18T19:03:57.211Z,81.68
2018-12-18T19:06:26.445Z,82.30
2018-12-18T19:08:55.441Z,82.70
2018-12-18T19:11:24.295Z,82.98
2018-12-18T19:13:53.219Z,82.63
2018-12-18T19:16:22.046Z,82.10
2018-12-18T19:18:50.886Z,82.08
2018-12-18T19:21:19.705Z,81.60
2018-12-18T19:23:48.637Z,82.49
2018-12-18T19:26:17.457Z,83.04
2018-12-18T19:28:50.319Z,82.25
2018-12-18T19:31:18.495Z,82.31
2018-12-18T19:33:47.330Z,81.68
2018-12-18T19:36:16.165Z,80.96
2018-12-18T19:38:45.029Z,81.07
2018-12-18T19:41:13.865Z,81.17
2018-12-18T19:43:44.049Z,80.35
2018-12-18T19:46:12.994Z,80.26
2018-12-18T19:48:42.130Z,80.58
2018-12-18T19:51:11.038Z,80.56
2018-12-18T19:53:39.959Z,80.38
2018-12-18T19:56:10.225Z,79.84
2018-12-18T19:58:39.080Z,80.22
2018-12-18T20:01:07.960Z,85.53
2018-12-18T20:03:36.929Z,85.48
2018-12-18T20:06:05.821Z,84.42
2018-12-18T20:08:34.664Z,83.73
2018-12-18T20:11:03.503Z,83.53
2018-12-18T20:13:33.629Z,83.12
2018-12-18T20:16:02.504Z,83.10
2018-12-18T20:18:32.128Z,83.46
2018-12-18T20:21:02.553Z,83.09
2018-12-18T20:23:32.680Z,83.86
2018-12-18T20:26:01.889Z,83.10
2018-12-18T20:28:30.701Z,83.74
2018-12-18T20:31:03.047Z,83.09
2018-12-18T20:33:31.885Z,83.76
2018-12-18T20:36:00.749Z,83.05
2018-12-18T20:38:29.556Z,82.61
2018-12-18T20:40:58.413Z,82.97
2018-12-18T20:43:27.271Z,82.63
2018-12-18T20:45:56.296Z,83.76
2018-12-18T20:48:25.450Z,83.05
2018-12-18T20:50:54.258Z,83.54
2018-12-18T20:53:23.394Z,84.01
2018-12-18T20:55:52.401Z,84.87
2018-12-18T20:58:21.208Z,85.81
2018-12-18T21:00:50.029Z,86.00
2018-12-18T21:03:18.898Z,87.28
2018-12-18T21:05:47.725Z,88.43
2018-12-18T21:08:23.183Z,88.16
2018-12-18T21:10:47.629Z,87.28
2018-12-18T21:13:21.729Z,88.55
2018-12-18T21:15:50.584Z,88.40
2018-12-18T21:18:19.562Z,87.30
2018-12-18T21:20:48.416Z,86.55
2018-12-18T21:23:17.341Z,85.36
2018-12-18T21:25:46.361Z,85.63
2018-12-18T21:28:15.292Z,85.39
2018-12-18T21:30:45.380Z,86.05
2018-12-18T21:33:14.394Z,85.37
2018-12-18T21:35:43.294Z,86.21
2018-12-18T21:38:12.209Z,86.24
2018-12-18T21:40:41.138Z,85.51
2018-12-18T21:43:09.968Z,86.71
2018-12-18T21:45:38.871Z,87.59
2018-12-18T21:48:07.773Z,86.71
2018-12-18T21:50:36.614Z,88.25
2018-12-18T21:53:05.479Z,88.27
2018-12-18T21:55:35.662Z,88.17
2018-12-18T21:58:04.541Z,89.04
2018-12-18T22:00:33.434Z,88.15
2018-12-18T22:03:03.853Z,92.26
2018-12-18T22:08:14.348Z,91.05
2018-12-18T22:10:43.166Z,90.52
2018-12-18T22:13:11.960Z,89.67
2018-12-18T22:15:40.783Z,88.96
2018-12-18T22:18:09.577Z,88.45
2018-12-18T22:20:38.384Z,88.53
2018-12-18T22:23:07.357Z,87.59
2018-12-18T22:25:36.152Z,87.38
2018-12-18T22:28:05.040Z,86.00
2018-12-18T22:30:33.841Z,85.79
2018-12-18T22:33:02.641Z,86.03
2018-12-18T22:35:31.483Z,86.81
2018-12-18T22:38:00.280Z,85.29
2018-12-18T22:40:29.101Z,85.28
2018-12-18T22:42:58.006Z,85.27
2018-12-18T22:45:26.890Z,85.00
2018-12-18T22:47:55.766Z,85.28
2018-12-18T22:50:24.662Z,84.31
2018-12-18T22:52:53.525Z,85.02
2018-12-18T22:55:22.398Z,84.54
2018-12-18T22:57:51.344Z,84.64
2018-12-18T23:00:25.417Z,84.58
2018-12-18T23:02:54.345Z,84.07
2018-12-18T23:05:23.217Z,84.04
2018-12-18T23:07:52.089Z,84.25
2018-12-18T23:10:22.291Z,83.89
2018-12-18T23:12:51.142Z,83.62
2018-12-18T23:15:20.023Z,83.18
2018-12-18T23:17:48.907Z,83.11
2018-12-18T23:20:19.081Z,82.88
2018-12-18T23:22:47.934Z,82.77
2018-12-18T23:25:16.808Z,82.80
2018-12-18T23:27:45.813Z,82.45
2018-12-18T23:30:14.681Z,81.56
2018-12-18T23:32:43.534Z,81.05
2018-12-18T23:35:12.507Z,81.39
2018-12-18T23:37:41.421Z,81.00
2018-12-18T23:40:10.308Z,81.43
2018-12-18T23:42:39.201Z,81.49
2018-12-18T23:45:08.082Z,81.00
2018-12-18T23:47:36.979Z,81.73
2018-12-18T23:50:05.984Z,81.95
2018-12-18T23:52:34.832Z,82.00
2018-12-18T23:55:03.713Z,81.62
2018-12-18T23:57:32.605Z,82.23
